createdAt,value
2022-08-26T00:00:54.570Z,97519.13
2022-08-26T00:03:57.136Z,97524.66
2022-08-26T00:06:59.996Z,97516.16
2022-08-26T00:10:02.579Z,97509.47
2022-08-26T00:13:06.220Z,97511.13
2022-08-26T00:16:09.092Z,97506.34
2022-08-26T00:19:13.753Z,97503.34
2022-08-26T00:22:20.307Z,97510.97
2022-08-26T00:25:23.937Z,97501.00
2022-08-26T00:28:26.632Z,97501.47
2022-08-26T00:31:28.935Z,97497.81
2022-08-26T00:34:33.449Z,97496.81
2022-08-26T00:37:36.536Z,97499.47
2022-08-26T00:40:46.103Z,97503.28
2022-08-26T00:43:48.967Z,97504.78
2022-08-26T00:46:58.497Z,97505.09
2022-08-26T00:50:06.974Z,97509.28
2022-08-26T00:53:25.873Z,97505.09
2022-08-26T00:56:38.419Z,97507.22
2022-08-26T00:59:41.182Z,97503.25
2022-08-26T01:02:46.864Z,97503.56
2022-08-26T01:05:52.039Z,97504.06
2022-08-26T01:08:56.475Z,97502.69
2022-08-26T01:12:01.830Z,97498.53
2022-08-26T01:15:04.701Z,97490.69
2022-08-26T01:18:08.271Z,97501.84
2022-08-26T01:21:27.731Z,97495.38
2022-08-26T01:24:31.877Z,97493.56
2022-08-26T01:27:35.608Z,97493.03
2022-08-26T01:30:41.018Z,97494.69
2022-08-26T01:33:51.667Z,97491.50
2022-08-26T01:37:08.243Z,97492.03
2022-08-26T01:40:21.002Z,97491.19
2022-08-26T01:43:27.749Z,97489.38
2022-08-26T01:46:30.918Z,97490.66
2022-08-26T01:49:35.982Z,97496.47
2022-08-26T01:52:42.687Z,97493.13
2022-08-26T01:55:49.140Z,97493.97
2022-08-26T01:58:57.821Z,97498.97
2022-08-26T02:01:59.906Z,97488.84
2022-08-26T02:05:05.691Z,97491.50
2022-08-26T02:08:08.767Z,97493.47
2022-08-26T02:11:11.295Z,97495.16
2022-08-26T02:14:21.116Z,97498.16
2022-08-26T02:17:44.846Z,97492.16
2022-08-26T02:20:46.841Z,97491.31
2022-08-26T02:23:55.984Z,97493.81
2022-08-26T02:26:58.864Z,97492.66
2022-08-26T02:30:12.586Z,97483.19
2022-08-26T02:33:14.937Z,97485.63
2022-08-26T02:36:28.606Z,97484.13
2022-08-26T02:39:31.728Z,97483.06
2022-08-26T02:42:33.846Z,97484.72
2022-08-26T02:45:36.581Z,97482.91
2022-08-26T02:48:39.545Z,97475.41
2022-08-26T02:51:41.592Z,97475.56
2022-08-26T02:54:45.466Z,97478.00
2022-08-26T02:57:47.684Z,97468.34
2022-08-26T03:00:52.872Z,97470.03
2022-08-26T03:03:55.632Z,97467.38
2022-08-26T03:06:58.114Z,97471.53
2022-08-26T03:10:00.893Z,97462.72
2022-08-26T03:13:05.158Z,97470.56
2022-08-26T03:16:08.471Z,97466.38
2022-08-26T03:19:11.685Z,97465.69
2022-08-26T03:22:14.490Z,97469.19
2022-08-26T03:25:17.818Z,97462.03
2022-08-26T03:28:20.895Z,97467.84
2022-08-26T03:31:24.628Z,97465.03
2022-08-26T03:34:27.166Z,97468.69
2022-08-26T03:37:29.809Z,97467.03
2022-08-26T03:40:34.089Z,97463.53
2022-08-26T03:43:36.131Z,97466.19
2022-08-26T03:46:38.794Z,97457.53
2022-08-26T03:49:42.074Z,97460.19
2022-08-26T03:52:44.314Z,97456.84
2022-08-26T03:55:47.141Z,97461.66
2022-08-26T03:58:54.885Z,97459.47
2022-08-26T04:01:56.882Z,97460.44
2022-08-26T04:04:58.900Z,97460.28
2022-08-26T04:08:00.880Z,97458.63
2022-08-26T04:11:03.040Z,97455.13
2022-08-26T04:14:08.812Z,97463.09
2022-08-26T04:17:11.621Z,97456.31
2022-08-26T04:20:18.539Z,97453.31
2022-08-26T04:23:20.727Z,97449.50
2022-08-26T04:26:23.670Z,97462.50
2022-08-26T04:29:27.074Z,97466.66
2022-08-26T04:32:29.047Z,97462.16
2022-08-26T04:35:32.084Z,97455.16
2022-08-26T04:38:34.689Z,97455.03
2022-08-26T04:41:37.152Z,97458.38
2022-08-26T04:44:39.169Z,97451.75
2022-08-26T04:47:41.583Z,97452.09
2022-08-26T04:50:43.910Z,97456.94
2022-08-26T04:53:47.090Z,97447.19
2022-08-26T04:56:50.826Z,97449.91
2022-08-26T04:59:53.328Z,97453.56
2022-08-26T05:02:55.318Z,97456.28
2022-08-26T05:05:57.923Z,97459.97
2022-08-26T05:08:59.854Z,97462.66
2022-08-26T05:12:01.850Z,97455.00
2022-08-26T05:15:05.794Z,97460.69
2022-08-26T05:18:08.249Z,97459.19
2022-08-26T05:21:20.221Z,97464.03
2022-08-26T05:24:22.261Z,97471.56
2022-08-26T05:27:24.377Z,97468.41
2022-08-26T05:30:26.662Z,97464.41
2022-08-26T05:33:29.576Z,97460.97
2022-08-26T05:36:33.902Z,97469.28
2022-08-26T05:39:36.976Z,97468.44
2022-08-26T05:42:39.200Z,97463.28
2022-08-26T05:45:48.410Z,97453.75
2022-08-26T05:48:53.908Z,97456.75
2022-08-26T05:51:56.141Z,97449.56
2022-08-26T05:54:58.537Z,97457.34
2022-08-26T05:58:01.097Z,97463.31
2022-08-26T06:01:16.680Z,97453.09
2022-08-26T06:04:20.065Z,97456.50
2022-08-26T06:07:42.258Z,97457.91
2022-08-26T06:10:45.123Z,97460.63
2022-08-26T06:13:47.972Z,97462.66
2022-08-26T06:16:50.841Z,97459.69
2022-08-26T06:19:53.262Z,97458.53
2022-08-26T06:23:13.673Z,97464.84
2022-08-26T06:26:17.390Z,97461.13
2022-08-26T06:29:24.137Z,97459.59
2022-08-26T06:32:28.151Z,97454.94
2022-08-26T06:35:37.164Z,97458.97
2022-08-26T06:38:39.319Z,97462.13
2022-08-26T06:41:43.889Z,97451.72
2022-08-26T06:44:52.071Z,97459.63
2022-08-26T06:47:54.077Z,97456.56
2022-08-26T06:51:25.942Z,97453.47
2022-08-26T06:54:32.599Z,97455.63
2022-08-26T06:57:37.672Z,97450.78
2022-08-26T07:00:41.832Z,97455.41
2022-08-26T07:03:52.325Z,97465.84
2022-08-26T07:06:57.466Z,97456.22
2022-08-26T07:10:00.066Z,97459.34
2022-08-26T07:13:02.306Z,97458.81
2022-08-26T07:16:12.289Z,97462.13
2022-08-26T07:19:30.225Z,97459.19
2022-08-26T07:22:34.105Z,97454.00
2022-08-26T07:25:42.129Z,97453.50
2022-08-26T07:28:46.461Z,97452.09
2022-08-26T07:31:48.505Z,97448.69
2022-08-26T07:34:50.503Z,97449.78
2022-08-26T07:37:56.899Z,97437.13
2022-08-26T07:40:59.654Z,97440.41
2022-08-26T07:44:02.536Z,97436.44
2022-08-26T07:47:10.547Z,97444.03
2022-08-26T07:50:48.883Z,97439.09
2022-08-26T07:53:52.638Z,97434.31
2022-08-26T07:56:55.804Z,97437.63
2022-08-26T07:59:59.043Z,97442.34
2022-08-26T08:03:03.626Z,97443.53
2022-08-26T08:06:05.853Z,97432.75
2022-08-26T08:09:08.345Z,97437.44
2022-08-26T08:12:14.146Z,97435.09
2022-08-26T08:15:18.272Z,97425.75
2022-08-26T08:18:23.467Z,97435.63
2022-08-26T08:21:26.269Z,97432.38
2022-08-26T08:24:29.133Z,97439.16
2022-08-26T08:27:34.011Z,97436.13
2022-08-26T08:30:39.098Z,97435.13
2022-08-26T08:33:42.157Z,97424.31
2022-08-26T08:36:49.071Z,97414.94
2022-08-26T08:39:51.546Z,97417.69
2022-08-26T08:42:56.751Z,97418.41
2022-08-26T08:46:04.373Z,97414.63
2022-08-26T08:49:06.582Z,97415.69
2022-08-26T08:52:29.618Z,97416.28
2022-08-26T08:55:44.507Z,97413.53
2022-08-26T08:58:48.294Z,97406.41
2022-08-26T09:01:52.443Z,97397.16
2022-08-26T09:05:25.140Z,97400.13
2022-08-26T09:08:31.568Z,97398.13
2022-08-26T09:11:35.286Z,97406.28
2022-08-26T09:14:37.494Z,97404.56
2022-08-26T09:18:00.333Z,97402.31
2022-08-26T09:21:06.809Z,97412.09
2022-08-26T09:24:11.066Z,97405.31
2022-08-26T09:27:37.598Z,97406.34
2022-08-26T09:30:39.879Z,97405.56
2022-08-26T09:33:43.766Z,97400.53
2022-08-26T09:36:48.732Z,97405.31
2022-08-26T09:39:50.821Z,97403.63
2022-08-26T09:43:23.170Z,97403.63
2022-08-26T09:46:28.155Z,97399.75
2022-08-26T09:49:39.110Z,97396.09
2022-08-26T09:52:43.264Z,97401.50
2022-08-26T09:55:47.988Z,97399.09
2022-08-26T09:58:52.032Z,97397.03
2022-08-26T10:01:55.121Z,97397.88
2022-08-26T10:05:09.290Z,97403.34
2022-08-26T10:08:23.150Z,97396.72
2022-08-26T10:11:40.050Z,97395.09
2022-08-26T10:15:08.513Z,97389.63
2022-08-26T10:18:25.240Z,97387.56
2022-08-26T10:21:43.271Z,97379.44
2022-08-26T10:24:51.951Z,97382.91
2022-08-26T10:28:18.227Z,97383.81
2022-08-26T10:31:28.261Z,97376.16
2022-08-26T10:34:32.714Z,97381.88
2022-08-26T10:37:40.094Z,97377.50
2022-08-26T10:41:00.944Z,97369.03
2022-08-26T10:44:07.417Z,97373.41
2022-08-26T10:47:16.664Z,97373.59
2022-08-26T10:50:23.576Z,97371.50
2022-08-26T10:53:43.901Z,97367.78
2022-08-26T10:56:54.916Z,97356.81
2022-08-26T11:00:31.342Z,97342.13
2022-08-26T11:03:40.737Z,97354.81
2022-08-26T11:06:46.303Z,97343.16
2022-08-26T11:09:49.748Z,97347.16
2022-08-26T11:12:59.512Z,97341.72
2022-08-26T11:16:01.597Z,97340.41
2022-08-26T11:19:04.684Z,97337.84
2022-08-26T11:22:31.376Z,97329.66
2022-08-26T11:25:33.677Z,97329.22
2022-08-26T11:28:50.792Z,97319.72
2022-08-26T11:31:57.058Z,97311.13
2022-08-26T11:35:07.869Z,97318.44
2022-08-26T11:38:18.671Z,97312.63
2022-08-26T11:41:24.779Z,97308.13
2022-08-26T11:44:35.981Z,97303.66
2022-08-26T11:47:38.286Z,97304.78
2022-08-26T11:50:40.827Z,97284.66
2022-08-26T11:53:47.362Z,97290.00
2022-08-26T11:56:53.281Z,97281.00
2022-08-26T11:59:56.748Z,97276.31
2022-08-26T12:03:01.024Z,97268.34
2022-08-26T12:06:10.308Z,97266.09
2022-08-26T12:09:31.697Z,97264.78
2022-08-26T12:12:38.868Z,97266.34
2022-08-26T12:15:41.020Z,97259.13
2022-08-26T12:18:44.857Z,97249.31
2022-08-26T12:21:49.131Z,97247.84
2022-08-26T12:24:59.081Z,97242.31
2022-08-26T12:28:06.368Z,97241.88
2022-08-26T12:31:08.476Z,97237.09
2022-08-26T12:34:17.930Z,97231.50
2022-08-26T12:37:20.899Z,97225.09
2022-08-26T12:40:30.888Z,97236.28
2022-08-26T12:43:51.149Z,97229.03
2022-08-26T12:46:53.612Z,97221.56
2022-08-26T12:50:27.561Z,97225.81
2022-08-26T12:53:32.509Z,97223.06
2022-08-26T12:56:42.024Z,97217.97
2022-08-26T12:59:45.212Z,97210.38
2022-08-26T13:02:47.673Z,97208.53
2022-08-26T13:05:49.713Z,97214.63
2022-08-26T13:08:53.336Z,97205.88
2022-08-26T13:11:56.385Z,97205.03
2022-08-26T13:15:00.612Z,97203.94
2022-08-26T13:18:03.475Z,97198.34
2022-08-26T13:21:11.400Z,97193.75
2022-08-26T13:24:30.880Z,97180.47
2022-08-26T13:27:33.802Z,97175.94
2022-08-26T13:30:35.868Z,97168.22
2022-08-26T13:33:38.444Z,97167.81
2022-08-26T13:36:44.042Z,97162.75
2022-08-26T13:39:46.549Z,97168.63
2022-08-26T13:42:49.936Z,97164.84
2022-08-26T13:45:52.481Z,97167.91
2022-08-26T13:48:54.805Z,97168.41
2022-08-26T13:51:56.797Z,97161.72
2022-08-26T13:55:00.590Z,97158.50
2022-08-26T13:58:02.883Z,97158.59
2022-08-26T14:01:05.064Z,97158.44
2022-08-26T14:04:08.635Z,97157.34
2022-08-26T14:07:10.712Z,97157.63
2022-08-26T14:10:13.189Z,97152.19
2022-08-26T14:13:15.446Z,97151.31
2022-08-26T14:16:33.596Z,97153.41
2022-08-26T14:19:35.759Z,97152.13
2022-08-26T14:22:57.402Z,97150.66
2022-08-26T14:26:08.432Z,97147.63
2022-08-26T14:29:14.635Z,97132.47
2022-08-26T14:32:27.578Z,97126.75
2022-08-26T14:35:30.849Z,97126.06
2022-08-26T14:38:32.926Z,97129.41
2022-08-26T14:41:42.735Z,97129.28
2022-08-26T14:44:47.594Z,97137.03
2022-08-26T14:47:51.371Z,97139.22
2022-08-26T14:50:53.479Z,97144.69
2022-08-26T14:54:13.802Z,97139.13
2022-08-26T14:57:15.904Z,97140.53
2022-08-26T15:00:19.493Z,97140.66
2022-08-26T15:03:22.108Z,97139.94
2022-08-26T15:06:24.432Z,97134.22
2022-08-26T15:09:29.222Z,97141.63
2022-08-26T15:12:31.551Z,97132.63
2022-08-26T15:15:33.658Z,97144.53
2022-08-26T15:18:35.653Z,97132.81
2022-08-26T15:21:38.082Z,97139.31
2022-08-26T15:24:40.075Z,97137.50
2022-08-26T15:27:42.259Z,97133.53
2022-08-26T15:30:44.443Z,97136.59
2022-08-26T15:33:47.629Z,97134.97
2022-08-26T15:36:50.213Z,97132.31
2022-08-26T15:39:53.163Z,97128.19
2022-08-26T15:43:11.420Z,97121.50
2022-08-26T15:46:19.438Z,97126.72
2022-08-26T15:49:24.287Z,97123.09
2022-08-26T15:52:26.823Z,97125.16
2022-08-26T15:55:28.875Z,97127.94
2022-08-26T15:58:31.002Z,97133.81
2022-08-26T16:05:08.424Z,97124.66
2022-08-26T16:08:11.304Z,97115.22
2022-08-26T16:11:14.541Z,97121.47
2022-08-26T16:14:19.443Z,97119.34
2022-08-26T16:17:22.749Z,97128.97
2022-08-26T16:20:26.354Z,97126.16
2022-08-26T16:23:29.041Z,97120.84
2022-08-26T16:26:34.955Z,97121.22
2022-08-26T16:29:39.422Z,97121.84
2022-08-26T16:32:41.577Z,97126.91
2022-08-26T16:35:44.949Z,97125.00
2022-08-26T16:38:53.356Z,97125.53
2022-08-26T16:41:55.525Z,97129.34
2022-08-26T16:44:57.671Z,97124.78
2022-08-26T16:47:59.930Z,97130.84
2022-08-26T16:51:02.061Z,97124.34
2022-08-26T16:54:04.460Z,97128.25
2022-08-26T16:57:12.000Z,97134.63
2022-08-26T17:00:18.292Z,97130.84
2022-08-26T17:03:20.488Z,97135.72
2022-08-26T17:06:23.139Z,97132.44
2022-08-26T17:09:25.969Z,97124.09
2022-08-26T17:12:28.587Z,97130.13
2022-08-26T17:15:30.751Z,97122.31
2022-08-26T17:18:33.759Z,97128.16
2022-08-26T17:21:38.824Z,97122.41
2022-08-26T17:24:42.082Z,97121.06
2022-08-26T17:27:44.212Z,97113.47
2022-08-26T17:30:47.018Z,97117.38
2022-08-26T17:33:53.691Z,97120.44
2022-08-26T17:37:02.406Z,97119.72
2022-08-26T17:40:11.955Z,97118.88
2022-08-26T17:43:16.086Z,97122.09
2022-08-26T17:46:18.904Z,97126.34
2022-08-26T17:49:22.020Z,97131.16
2022-08-26T17:52:24.660Z,97130.72
2022-08-26T17:55:26.738Z,97138.03
2022-08-26T17:58:28.735Z,97142.97
2022-08-26T18:01:31.309Z,97137.59
2022-08-26T18:04:33.472Z,97139.16
2022-08-26T18:07:41.340Z,97139.28
2022-08-26T18:10:48.357Z,97142.84
2022-08-26T18:13:51.393Z,97135.03
2022-08-26T18:16:54.030Z,97148.31
2022-08-26T18:19:56.031Z,97152.69
2022-08-26T18:22:58.260Z,97162.84
2022-08-26T18:26:00.339Z,97165.75
2022-08-26T18:29:04.877Z,97162.44
2022-08-26T18:32:06.976Z,97164.97
2022-08-26T18:35:10.110Z,97159.81
2022-08-26T18:38:14.128Z,97157.53
2022-08-26T18:41:16.760Z,97164.19
2022-08-26T18:44:21.712Z,97170.59
2022-08-26T18:47:23.837Z,97174.28
2022-08-26T18:50:25.874Z,97183.56
2022-08-26T18:53:28.649Z,97177.59
2022-08-26T18:56:31.833Z,97190.19
2022-08-26T18:59:37.506Z,97198.41
2022-08-26T19:02:40.061Z,97193.84
2022-08-26T19:05:42.639Z,97195.91
2022-08-26T19:08:46.212Z,97206.03
2022-08-26T19:11:52.532Z,97201.22
2022-08-26T19:14:54.756Z,97203.66
2022-08-26T19:17:57.372Z,97202.78
2022-08-26T19:20:59.674Z,97203.03
2022-08-26T19:24:05.086Z,97213.56
2022-08-26T19:27:10.633Z,97214.78
2022-08-26T19:30:15.902Z,97210.84
2022-08-26T19:33:19.366Z,97219.44
2022-08-26T19:36:24.007Z,97219.22
2022-08-26T19:39:27.087Z,97223.31
2022-08-26T19:42:30.295Z,97223.09
2022-08-26T19:45:33.990Z,97219.59
2022-08-26T19:48:36.958Z,97226.16
2022-08-26T19:51:39.397Z,97229.25
2022-08-26T19:54:41.771Z,97236.03
2022-08-26T19:57:45.432Z,97224.63
2022-08-26T20:00:47.787Z,97225.31
2022-08-26T20:03:50.551Z,97229.78
2022-08-26T20:06:53.797Z,97228.94
2022-08-26T20:10:00.857Z,97229.59
2022-08-26T20:13:03.151Z,97230.41
2022-08-26T20:16:06.220Z,97235.13
2022-08-26T20:19:26.832Z,97239.56
2022-08-26T20:22:29.403Z,97244.69
2022-08-26T20:25:33.295Z,97242.06
2022-08-26T20:28:35.628Z,97239.81
2022-08-26T20:31:39.571Z,97240.63
2022-08-26T20:34:41.891Z,97248.34
2022-08-26T20:37:44.276Z,97239.16
2022-08-26T20:40:46.428Z,97243.81
2022-08-26T20:48:41.530Z,97235.53
2022-08-26T20:51:45.021Z,97232.09
2022-08-26T20:54:47.290Z,97227.94
2022-08-26T20:57:49.469Z,97221.31
2022-08-26T21:00:52.599Z,97235.66
2022-08-26T21:03:57.536Z,97232.97
2022-08-26T21:07:01.484Z,97225.41
2022-08-26T21:10:04.437Z,97225.91
2022-08-26T21:13:07.177Z,97232.41
2022-08-26T21:16:12.168Z,97234.81
2022-08-26T21:19:18.308Z,97238.13
2022-08-26T21:22:20.606Z,97236.63
2022-08-26T21:25:22.665Z,97239.44
2022-08-26T21:28:25.270Z,97239.81
2022-08-26T21:31:29.807Z,97239.59
2022-08-26T21:34:31.954Z,97242.28
2022-08-26T21:37:34.047Z,97232.41
2022-08-26T21:40:36.202Z,97236.38
2022-08-26T21:43:39.240Z,97235.38
2022-08-26T21:46:43.978Z,97237.41
2022-08-26T21:49:46.069Z,97237.56
2022-08-26T21:52:48.152Z,97244.97
2022-08-26T21:55:50.239Z,97242.28
2022-08-26T21:58:55.170Z,97232.53
2022-08-26T22:01:58.611Z,97231.44
2022-08-26T22:05:00.934Z,97239.66
2022-08-26T22:08:03.393Z,97232.47
2022-08-26T22:11:06.545Z,97244.19
2022-08-26T22:14:08.768Z,97236.41
2022-08-26T22:17:10.801Z,97231.16
2022-08-26T22:20:16.742Z,97230.00
2022-08-26T22:23:20.910Z,97224.56
2022-08-26T22:26:25.739Z,97216.59
2022-08-26T22:29:28.198Z,97223.59
2022-08-26T22:32:30.315Z,97226.88
2022-08-26T22:35:32.432Z,97232.22
2022-08-26T22:38:34.667Z,97223.91
2022-08-26T22:41:36.837Z,97225.75
2022-08-26T22:44:39.094Z,97224.38
2022-08-26T22:47:41.230Z,97226.09
2022-08-26T22:50:44.857Z,97224.53
2022-08-26T22:53:47.066Z,97230.47
2022-08-26T22:56:49.220Z,97220.78
2022-08-26T22:59:51.279Z,97221.00
2022-08-26T23:02:53.357Z,97225.91
2022-08-26T23:05:56.219Z,97226.47
2022-08-26T23:08:58.280Z,97221.88
2022-08-26T23:12:00.414Z,97216.06
2022-08-26T23:15:02.569Z,97226.31
2022-08-26T23:18:04.887Z,97220.13
2022-08-26T23:21:07.703Z,97222.53
2022-08-26T23:24:10.615Z,97220.69
2022-08-26T23:27:12.680Z,97226.44
2022-08-26T23:30:24.353Z,97235.66
2022-08-26T23:33:46.339Z,97223.31
2022-08-26T23:36:48.925Z,97228.00
2022-08-26T23:39:50.978Z,97230.31
2022-08-26T23:42:54.961Z,97228.28
2022-08-26T23:45:57.049Z,97232.03
2022-08-26T23:48:59.641Z,97231.66
2022-08-26T23:52:21.461Z,97232.13
2022-08-26T23:55:23.721Z,97223.66
2022-08-26T23:58:25.924Z,97221.16
